sensor_id;sensor_type;location;lat;lon;timestamp;temperature;humidity
20891;DHT22;10605;52.968;8.844;2023-04-03T00:02:14;0.60;99.90
20891;DHT22;10605;52.968;8.844;2023-04-03T00:04:40;0.60;99.90
20891;DHT22;10605;52.968;8.844;2023-04-03T00:07:06;0.50;99.90
20891;DHT22;10605;52.968;8.844;2023-04-03T00:09:31;0.50;99.90
20891;DHT22;10605;52.968;8.844;2023-04-03T00:11:57;0.40;99.90
20891;DHT22;10605;52.968;8.844;2023-04-03T00:14:23;0.40;99.90
20891;DHT22;10605;52.968;8.844;2023-04-03T00:16:48;0.50;99.90
20891;DHT22;10605;52.968;8.844;2023-04-03T00:19:14;0.40;99.90
20891;DHT22;10605;52.968;8.844;2023-04-03T00:21:40;0.40;99.90
20891;DHT22;10605;52.968;8.844;2023-04-03T00:24:06;0.40;99.90
20891;DHT22;10605;52.968;8.844;2023-04-03T00:26:31;0.40;99.90
20891;DHT22;10605;52.968;8.844;2023-04-03T00:28:57;0.40;99.90
20891;DHT22;10605;52.968;8.844;2023-04-03T00:31:23;0.30;99.90
20891;DHT22;10605;52.968;8.844;2023-04-03T00:33:48;0.30;99.90
20891;DHT22;10605;52.968;8.844;2023-04-03T00:36:15;0.20;99.90
20891;DHT22;10605;52.968;8.844;2023-04-03T00:38:41;0.20;99.90
20891;DHT22;10605;52.968;8.844;2023-04-03T00:41:07;0.10;99.90
20891;DHT22;10605;52.968;8.844;2023-04-03T00:43:33;0.00;99.90
20891;DHT22;10605;52.968;8.844;2023-04-03T00:46:00;-0.10;99.90
20891;DHT22;10605;52.968;8.844;2023-04-03T00:48:39;-0.10;99.90
20891;DHT22;10605;52.968;8.844;2023-04-03T00:51:07;-0.10;99.90
20891;DHT22;10605;52.968;8.844;2023-04-03T00:53:38;-0.10;99.90
20891;DHT22;10605;52.968;8.844;2023-04-03T00:56:08;-0.10;99.90
20891;DHT22;10605;52.968;8.844;2023-04-03T01:01:20;0.00;99.90
20891;DHT22;10605;52.968;8.844;2023-04-03T01:03:47;-0.10;99.90
20891;DHT22;10605;52.968;8.844;2023-04-03T01:06:14;0.00;99.90
20891;DHT22;10605;52.968;8.844;2023-04-03T01:08:41;-0.10;99.90
20891;DHT22;10605;52.968;8.844;2023-04-03T01:11:07;-0.10;99.90
20891;DHT22;10605;52.968;8.844;2023-04-03T01:13:33;-0.10;99.90
20891;DHT22;10605;52.968;8.844;2023-04-03T01:16:03;-0.20;99.90
20891;DHT22;10605;52.968;8.844;2023-04-03T01:18:30;-0.10;99.90
20891;DHT22;10605;52.968;8.844;2023-04-03T01:26:37;-0.10;99.90
20891;DHT22;10605;52.968;8.844;2023-04-03T01:29:03;-0.20;99.90
20891;DHT22;10605;52.968;8.844;2023-04-03T01:31:44;-0.20;99.90
20891;DHT22;10605;52.968;8.844;2023-04-03T01:34:10;-0.20;99.90
20891;DHT22;10605;52.968;8.844;2023-04-03T01:36:36;-0.20;99.90
20891;DHT22;10605;52.968;8.844;2023-04-03T01:39:01;-0.30;99.90
20891;DHT22;10605;52.968;8.844;2023-04-03T01:41:28;-0.30;99.90
20891;DHT22;10605;52.968;8.844;2023-04-03T01:43:53;-0.30;99.90
20891;DHT22;10605;52.968;8.844;2023-04-03T01:46:19;-0.30;99.90
20891;DHT22;10605;52.968;8.844;2023-04-03T01:48:46;-0.40;99.90
20891;DHT22;10605;52.968;8.844;2023-04-03T01:51:12;-0.40;99.90
20891;DHT22;10605;52.968;8.844;2023-04-03T01:53:37;-0.40;99.90
20891;DHT22;10605;52.968;8.844;2023-04-03T01:56:04;-0.40;99.90
20891;DHT22;10605;52.968;8.844;2023-04-03T01:58:29;-0.40;99.90
20891;DHT22;10605;52.968;8.844;2023-04-03T02:00:55;-0.40;99.90
20891;DHT22;10605;52.968;8.844;2023-04-03T02:03:21;-0.50;99.90
20891;DHT22;10605;52.968;8.844;2023-04-03T02:05:47;-0.50;99.90
20891;DHT22;10605;52.968;8.844;2023-04-03T02:08:12;-0.50;99.90
20891;DHT22;10605;52.968;8.844;2023-04-03T02:10:39;-0.50;99.90
20891;DHT22;10605;52.968;8.844;2023-04-03T02:13:05;-0.50;99.90
20891;DHT22;10605;52.968;8.844;2023-04-03T02:15:30;-0.50;99.90
20891;DHT22;10605;52.968;8.844;2023-04-03T02:17:56;-0.60;99.90
20891;DHT22;10605;52.968;8.844;2023-04-03T02:20:22;-0.60;99.90
20891;DHT22;10605;52.968;8.844;2023-04-03T02:22:47;-0.50;99.90
20891;DHT22;10605;52.968;8.844;2023-04-03T02:25:13;-0.50;99.90
20891;DHT22;10605;52.968;8.844;2023-04-03T02:27:39;-0.60;99.90
20891;DHT22;10605;52.968;8.844;2023-04-03T02:30:05;-0.60;99.90
20891;DHT22;10605;52.968;8.844;2023-04-03T02:32:32;-0.60;99.90
20891;DHT22;10605;52.968;8.844;2023-04-03T02:34:58;-0.70;99.90
20891;DHT22;10605;52.968;8.844;2023-04-03T02:37:23;-0.70;99.90
20891;DHT22;10605;52.968;8.844;2023-04-03T02:39:49;-0.70;99.90
20891;DHT22;10605;52.968;8.844;2023-04-03T02:42:15;-0.70;99.90
20891;DHT22;10605;52.968;8.844;2023-04-03T02:44:41;-0.70;99.90
20891;DHT22;10605;52.968;8.844;2023-04-03T02:47:07;-0.70;99.90
20891;DHT22;10605;52.968;8.844;2023-04-03T02:49:33;-0.80;99.90
20891;DHT22;10605;52.968;8.844;2023-04-03T02:51:58;-0.80;99.90
20891;DHT22;10605;52.968;8.844;2023-04-03T02:54:24;-0.80;99.90
20891;DHT22;10605;52.968;8.844;2023-04-03T02:56:53;-0.80;99.90
20891;DHT22;10605;52.968;8.844;2023-04-03T02:59:18;-0.80;99.90
20891;DHT22;10605;52.968;8.844;2023-04-03T03:01:44;-0.80;99.90
20891;DHT22;10605;52.968;8.844;2023-04-03T03:04:10;-0.90;99.90
20891;DHT22;10605;52.968;8.844;2023-04-03T03:06:35;-0.90;99.90
20891;DHT22;10605;52.968;8.844;2023-04-03T03:09:01;-0.90;99.90
20891;DHT22;10605;52.968;8.844;2023-04-03T03:11:27;-0.80;99.90
20891;DHT22;10605;52.968;8.844;2023-04-03T03:13:52;-0.80;99.90
20891;DHT22;10605;52.968;8.844;2023-04-03T03:16:18;-0.80;99.90
20891;DHT22;10605;52.968;8.844;2023-04-03T03:18:44;-0.80;99.90
20891;DHT22;10605;52.968;8.844;2023-04-03T03:21:10;-0.90;99.90
20891;DHT22;10605;52.968;8.844;2023-04-03T03:23:36;-1.00;99.90
20891;DHT22;10605;52.968;8.844;2023-04-03T03:26:04;-1.00;99.90
20891;DHT22;10605;52.968;8.844;2023-04-03T03:28:30;-1.00;99.90
20891;DHT22;10605;52.968;8.844;2023-04-03T03:30:57;-1.00;99.90
20891;DHT22;10605;52.968;8.844;2023-04-03T03:33:23;-1.00;99.90
20891;DHT22;10605;52.968;8.844;2023-04-03T03:35:49;-1.00;99.90
20891;DHT22;10605;52.968;8.844;2023-04-03T03:38:15;-0.90;99.90
20891;DHT22;10605;52.968;8.844;2023-04-03T03:40:41;-0.90;99.90
20891;DHT22;10605;52.968;8.844;2023-04-03T03:43:06;-1.00;99.90
20891;DHT22;10605;52.968;8.844;2023-04-03T03:45:32;-1.00;99.90
20891;DHT22;10605;52.968;8.844;2023-04-03T03:47:58;-1.00;99.90
20891;DHT22;10605;52.968;8.844;2023-04-03T03:50:23;-1.00;99.90
20891;DHT22;10605;52.968;8.844;2023-04-03T03:52:49;-1.00;99.90
20891;DHT22;10605;52.968;8.844;2023-04-03T03:55:15;-1.10;99.90
20891;DHT22;10605;52.968;8.844;2023-04-03T03:57:41;-1.10;99.90
20891;DHT22;10605;52.968;8.844;2023-04-03T04:00:07;-1.20;99.90
20891;DHT22;10605;52.968;8.844;2023-04-03T04:02:34;-1.20;99.90
20891;DHT22;10605;52.968;8.844;2023-04-03T04:04:59;-1.20;99.90
20891;DHT22;10605;52.968;8.844;2023-04-03T04:07:25;-1.20;99.90
20891;DHT22;10605;52.968;8.844;2023-04-03T04:09:53;-1.20;99.90
20891;DHT22;10605;52.968;8.844;2023-04-03T04:12:19;-1.20;99.90
20891;DHT22;10605;52.968;8.844;2023-04-03T04:14:45;-1.20;99.90
20891;DHT22;10605;52.968;8.844;2023-04-03T04:17:12;-1.20;99.90
20891;DHT22;10605;52.968;8.844;2023-04-03T04:19:38;-1.20;99.90
20891;DHT22;10605;52.968;8.844;2023-04-03T04:22:04;-1.20;99.90
20891;DHT22;10605;52.968;8.844;2023-04-03T04:24:30;-1.30;99.90
20891;DHT22;10605;52.968;8.844;2023-04-03T04:26:55;-1.20;99.90
20891;DHT22;10605;52.968;8.844;2023-04-03T04:29:21;-1.10;99.90
20891;DHT22;10605;52.968;8.844;2023-04-03T04:31:47;-1.10;99.90
20891;DHT22;10605;52.968;8.844;2023-04-03T04:34:12;-1.10;99.90
20891;DHT22;10605;52.968;8.844;2023-04-03T04:36:39;-1.10;99.90
20891;DHT22;10605;52.968;8.844;2023-04-03T04:39:04;-1.20;99.90
20891;DHT22;10605;52.968;8.844;2023-04-03T04:41:30;-1.30;99.90
20891;DHT22;10605;52.968;8.844;2023-04-03T04:43:56;-1.30;99.90
20891;DHT22;10605;52.968;8.844;2023-04-03T04:46:22;-1.30;99.90
20891;DHT22;10605;52.968;8.844;2023-04-03T04:48:48;-1.20;99.90
20891;DHT22;10605;52.968;8.844;2023-04-03T04:51:14;-1.20;99.90
20891;DHT22;10605;52.968;8.844;2023-04-03T04:53:40;-1.20;99.90
20891;DHT22;10605;52.968;8.844;2023-04-03T04:56:07;-1.20;99.90
20891;DHT22;10605;52.968;8.844;2023-04-03T04:58:32;-1.20;99.90
20891;DHT22;10605;52.968;8.844;2023-04-03T05:00:59;-1.10;99.90
20891;DHT22;10605;52.968;8.844;2023-04-03T05:03:25;-1.10;99.90
20891;DHT22;10605;52.968;8.844;2023-04-03T05:05:51;-1.10;99.90
20891;DHT22;10605;52.968;8.844;2023-04-03T05:08:16;-1.00;99.90
20891;DHT22;10605;52.968;8.844;2023-04-03T05:10:42;-1.00;99.90
20891;DHT22;10605;52.968;8.844;2023-04-03T05:13:09;-0.80;99.90
20891;DHT22;10605;52.968;8.844;2023-04-03T05:15:35;-0.70;99.90
20891;DHT22;10605;52.968;8.844;2023-04-03T05:18:01;-0.60;99.90
20891;DHT22;10605;52.968;8.844;2023-04-03T05:20:26;-0.40;99.90
20891;DHT22;10605;52.968;8.844;2023-04-03T05:22:52;-0.10;99.90
20891;DHT22;10605;52.968;8.844;2023-04-03T05:25:18;0.30;99.90
20891;DHT22;10605;52.968;8.844;2023-04-03T05:27:43;0.70;99.90
20891;DHT22;10605;52.968;8.844;2023-04-03T05:30:09;1.10;99.90
20891;DHT22;10605;52.968;8.844;2023-04-03T05:32:35;1.40;99.90
20891;DHT22;10605;52.968;8.844;2023-04-03T05:35:01;1.80;99.90
20891;DHT22;10605;52.968;8.844;2023-04-03T05:37:27;2.20;99.90
20891;DHT22;10605;52.968;8.844;2023-04-03T05:39:53;2.50;99.90
20891;DHT22;10605;52.968;8.844;2023-04-03T05:42:18;2.90;99.90
20891;DHT22;10605;52.968;8.844;2023-04-03T05:44:44;3.20;99.90
20891;DHT22;10605;52.968;8.844;2023-04-03T05:47:12;3.40;99.90
20891;DHT22;10605;52.968;8.844;2023-04-03T05:49:38;3.60;99.90
20891;DHT22;10605;52.968;8.844;2023-04-03T05:52:11;3.80;99.90
20891;DHT22;10605;52.968;8.844;2023-04-03T05:54:42;4.00;99.90
20891;DHT22;10605;52.968;8.844;2023-04-03T05:57:08;4.10;99.90
20891;DHT22;10605;52.968;8.844;2023-04-03T05:59:34;4.30;99.90
20891;DHT22;10605;52.968;8.844;2023-04-03T06:01:59;4.70;99.90
20891;DHT22;10605;52.968;8.844;2023-04-03T06:04:26;5.10;99.90
20891;DHT22;10605;52.968;8.844;2023-04-03T06:07:06;5.30;99.90
20891;DHT22;10605;52.968;8.844;2023-04-03T06:09:55;5.80;99.90
20891;DHT22;10605;52.968;8.844;2023-04-03T06:12:22;5.90;99.90
20891;DHT22;10605;52.968;8.844;2023-04-03T06:14:48;6.30;99.90
20891;DHT22;10605;52.968;8.844;2023-04-03T06:17:17;6.50;99.90
20891;DHT22;10605;52.968;8.844;2023-04-03T06:19:46;6.70;99.90
20891;DHT22;10605;52.968;8.844;2023-04-03T06:22:13;6.60;99.90
20891;DHT22;10605;52.968;8.844;2023-04-03T06:24:38;7.00;99.90
20891;DHT22;10605;52.968;8.844;2023-04-03T06:27:04;7.00;99.90
20891;DHT22;10605;52.968;8.844;2023-04-03T06:29:30;7.10;99.90
20891;DHT22;10605;52.968;8.844;2023-04-03T06:31:56;7.40;99.90
20891;DHT22;10605;52.968;8.844;2023-04-03T06:34:22;7.40;99.90
20891;DHT22;10605;52.968;8.844;2023-04-03T06:36:48;7.50;99.90
20891;DHT22;10605;52.968;8.844;2023-04-03T06:39:19;8.20;99.90
20891;DHT22;10605;52.968;8.844;2023-04-03T06:41:48;7.70;99.90
20891;DHT22;10605;52.968;8.844;2023-04-03T06:44:14;8.20;99.90
20891;DHT22;10605;52.968;8.844;2023-04-03T06:46:42;8.00;99.90
20891;DHT22;10605;52.968;8.844;2023-04-03T06:49:08;7.90;99.90
20891;DHT22;10605;52.968;8.844;2023-04-03T06:51:35;7.60;99.90
20891;DHT22;10605;52.968;8.844;2023-04-03T06:54:01;7.60;99.90
20891;DHT22;10605;52.968;8.844;2023-04-03T06:56:28;8.10;99.90
20891;DHT22;10605;52.968;8.844;2023-04-03T06:58:55;7.90;99.90
20891;DHT22;10605;52.968;8.844;2023-04-03T07:01:24;7.60;99.90
20891;DHT22;10605;52.968;8.844;2023-04-03T07:03:51;7.50;99.90
20891;DHT22;10605;52.968;8.844;2023-04-03T07:06:18;8.10;99.90
20891;DHT22;10605;52.968;8.844;2023-04-03T07:08:44;9.10;99.90
20891;DHT22;10605;52.968;8.844;2023-04-03T07:11:12;9.40;99.90
20891;DHT22;10605;52.968;8.844;2023-04-03T07:13:38;9.90;99.90
20891;DHT22;10605;52.968;8.844;2023-04-03T07:16:04;10.20;99.90
20891;DHT22;10605;52.968;8.844;2023-04-03T07:18:32;9.80;99.90
20891;DHT22;10605;52.968;8.844;2023-04-03T07:20:58;9.10;99.90
20891;DHT22;10605;52.968;8.844;2023-04-03T07:23:24;9.40;99.90
20891;DHT22;10605;52.968;8.844;2023-04-03T07:25:51;9.00;99.90
20891;DHT22;10605;52.968;8.844;2023-04-03T07:28:19;8.90;99.90
20891;DHT22;10605;52.968;8.844;2023-04-03T07:30:52;9.30;99.90
20891;DHT22;10605;52.968;8.844;2023-04-03T07:33:19;9.70;99.90
20891;DHT22;10605;52.968;8.844;2023-04-03T07:35:45;9.30;99.90
20891;DHT22;10605;52.968;8.844;2023-04-03T07:38:11;9.30;99.90
20891;DHT22;10605;52.968;8.844;2023-04-03T07:40:37;9.10;99.90
20891;DHT22;10605;52.968;8.844;2023-04-03T07:43:04;9.50;99.90
20891;DHT22;10605;52.968;8.844;2023-04-03T07:45:29;9.30;99.90
20891;DHT22;10605;52.968;8.844;2023-04-03T07:47:58;9.40;99.90
20891;DHT22;10605;52.968;8.844;2023-04-03T07:50:24;9.80;99.90
20891;DHT22;10605;52.968;8.844;2023-04-03T07:52:50;9.90;99.90
20891;DHT22;10605;52.968;8.844;2023-04-03T07:55:16;9.70;99.90
20891;DHT22;10605;52.968;8.844;2023-04-03T07:57:42;9.90;99.90
20891;DHT22;10605;52.968;8.844;2023-04-03T08:00:08;10.50;99.90
20891;DHT22;10605;52.968;8.844;2023-04-03T08:02:35;10.60;99.90
20891;DHT22;10605;52.968;8.844;2023-04-03T08:05:00;11.00;99.90
20891;DHT22;10605;52.968;8.844;2023-04-03T08:07:26;10.60;99.90
20891;DHT22;10605;52.968;8.844;2023-04-03T08:09:52;10.90;99.70
20891;DHT22;10605;52.968;8.844;2023-04-03T08:12:18;10.90;99.90
20891;DHT22;10605;52.968;8.844;2023-04-03T08:14:43;11.30;98.30
20891;DHT22;10605;52.968;8.844;2023-04-03T08:17:09;11.80;95.20
20891;DHT22;10605;52.968;8.844;2023-04-03T08:19:38;11.50;94.50
20891;DHT22;10605;52.968;8.844;2023-04-03T08:22:05;11.70;94.70
20891;DHT22;10605;52.968;8.844;2023-04-03T08:24:34;12.10;94.70
20891;DHT22;10605;52.968;8.844;2023-04-03T08:27:00;12.80;92.70
20891;DHT22;10605;52.968;8.844;2023-04-03T08:29:27;12.50;91.20
20891;DHT22;10605;52.968;8.844;2023-04-03T08:31:53;12.30;91.10
20891;DHT22;10605;52.968;8.844;2023-04-03T08:34:19;12.00;86.20
20891;DHT22;10605;52.968;8.844;2023-04-03T08:36:45;12.50;88.90
20891;DHT22;10605;52.968;8.844;2023-04-03T08:39:11;12.40;81.70
20891;DHT22;10605;52.968;8.844;2023-04-03T08:41:44;12.50;83.40
20891;DHT22;10605;52.968;8.844;2023-04-03T08:44:25;12.30;73.50
20891;DHT22;10605;52.968;8.844;2023-04-03T08:49:48;11.90;74.90
20891;DHT22;10605;52.968;8.844;2023-04-03T08:52:41;12.10;73.20
20891;DHT22;10605;52.968;8.844;2023-04-03T08:55:28;12.40;76.20
20891;DHT22;10605;52.968;8.844;2023-04-03T08:58:05;13.80;73.80
20891;DHT22;10605;52.968;8.844;2023-04-03T09:00:45;13.20;67.30
20891;DHT22;10605;52.968;8.844;2023-04-03T09:03:16;13.90;68.00
20891;DHT22;10605;52.968;8.844;2023-04-03T09:05:54;14.40;70.90
20891;DHT22;10605;52.968;8.844;2023-04-03T09:10:51;14.00;64.30
20891;DHT22;10605;52.968;8.844;2023-04-03T09:13:39;14.50;58.90
20891;DHT22;10605;52.968;8.844;2023-04-03T09:19:27;13.80;54.00
20891;DHT22;10605;52.968;8.844;2023-04-03T09:21:56;14.50;56.80
20891;DHT22;10605;52.968;8.844;2023-04-03T09:24:23;16.20;53.10
20891;DHT22;10605;52.968;8.844;2023-04-03T09:27:04;16.70;51.90
20891;DHT22;10605;52.968;8.844;2023-04-03T09:29:35;17.10;47.80
20891;DHT22;10605;52.968;8.844;2023-04-03T09:32:19;17.00;49.10
20891;DHT22;10605;52.968;8.844;2023-04-03T09:34:47;16.00;45.30
20891;DHT22;10605;52.968;8.844;2023-04-03T09:39:58;17.10;43.70
20891;DHT22;10605;52.968;8.844;2023-04-03T09:42:25;16.90;40.80
20891;DHT22;10605;52.968;8.844;2023-04-03T09:44:59;17.80;41.90
20891;DHT22;10605;52.968;8.844;2023-04-03T09:47:27;17.90;40.10
20891;DHT22;10605;52.968;8.844;2023-04-03T09:50:20;16.60;38.90
20891;DHT22;10605;52.968;8.844;2023-04-03T09:52:49;18.00;41.50
20891;DHT22;10605;52.968;8.844;2023-04-03T09:55:16;18.10;38.80
20891;DHT22;10605;52.968;8.844;2023-04-03T09:57:43;18.20;38.10
20891;DHT22;10605;52.968;8.844;2023-04-03T10:02:56;19.10;41.40
20891;DHT22;10605;52.968;8.844;2023-04-03T10:07:50;18.50;36.60
20891;DHT22;10605;52.968;8.844;2023-04-03T10:10:20;19.80;37.50
20891;DHT22;10605;52.968;8.844;2023-04-03T10:12:48;20.10;34.30
20891;DHT22;10605;52.968;8.844;2023-04-03T10:15:16;18.80;34.10
20891;DHT22;10605;52.968;8.844;2023-04-03T10:18:00;19.70;32.90
20891;DHT22;10605;52.968;8.844;2023-04-03T10:20:39;16.30;34.50
20891;DHT22;10605;52.968;8.844;2023-04-03T10:23:26;18.50;34.50
20891;DHT22;10605;52.968;8.844;2023-04-03T10:34:27;18.20;34.30
20891;DHT22;10605;52.968;8.844;2023-04-03T10:37:20;18.60;34.50
20891;DHT22;10605;52.968;8.844;2023-04-03T10:42:50;20.80;34.60
20891;DHT22;10605;52.968;8.844;2023-04-03T10:48:44;19.10;30.30
20891;DHT22;10605;52.968;8.844;2023-04-03T10:56:56;20.00;30.00
20891;DHT22;10605;52.968;8.844;2023-04-03T10:59:26;19.90;28.50
20891;DHT22;10605;52.968;8.844;2023-04-03T11:01:57;17.10;29.50
20891;DHT22;10605;52.968;8.844;2023-04-03T11:04:28;18.80;29.80
20891;DHT22;10605;52.968;8.844;2023-04-03T11:07:12;18.50;33.60
20891;DHT22;10605;52.968;8.844;2023-04-03T11:09:44;18.60;30.00
20891;DHT22;10605;52.968;8.844;2023-04-03T11:12:29;19.60;28.70
20891;DHT22;10605;52.968;8.844;2023-04-03T11:14:58;21.00;27.50
20891;DHT22;10605;52.968;8.844;2023-04-03T11:17:41;20.80;26.80
20891;DHT22;10605;52.968;8.844;2023-04-03T11:20:29;22.90;27.00
20891;DHT22;10605;52.968;8.844;2023-04-03T11:25:38;20.30;26.60
20891;DHT22;10605;52.968;8.844;2023-04-03T11:28:12;15.40;33.30
20891;DHT22;10605;52.968;8.844;2023-04-03T11:31:15;18.70;33.50
20891;DHT22;10605;52.968;8.844;2023-04-03T11:36:49;12.90;39.20
20891;DHT22;10605;52.968;8.844;2023-04-03T11:39:34;10.60;45.50
20891;DHT22;10605;52.968;8.844;2023-04-03T11:44:41;14.60;42.30
20891;DHT22;10605;52.968;8.844;2023-04-03T11:47:11;11.70;43.30
20891;DHT22;10605;52.968;8.844;2023-04-03T11:49:59;11.70;45.30
20891;DHT22;10605;52.968;8.844;2023-04-03T12:01:11;18.60;28.00
20891;DHT22;10605;52.968;8.844;2023-04-03T12:13:43;21.60;27.80
20891;DHT22;10605;52.968;8.844;2023-04-03T12:24:29;21.10;29.10
20891;DHT22;10605;52.968;8.844;2023-04-03T12:40:39;17.70;35.70
20891;DHT22;10605;52.968;8.844;2023-04-03T12:45:59;19.80;29.10
20891;DHT22;10605;52.968;8.844;2023-04-03T12:48:29;18.70;29.30
20891;DHT22;10605;52.968;8.844;2023-04-03T12:50:59;19.10;29.60
20891;DHT22;10605;52.968;8.844;2023-04-03T12:53:27;19.50;29.70
20891;DHT22;10605;52.968;8.844;2023-04-03T12:55:56;17.80;30.30
20891;DHT22;10605;52.968;8.844;2023-04-03T12:58:27;13.60;37.30
20891;DHT22;10605;52.968;8.844;2023-04-03T13:01:20;14.60;37.20
20891;DHT22;10605;52.968;8.844;2023-04-03T13:03:53;13.00;39.90
20891;DHT22;10605;52.968;8.844;2023-04-03T13:06:23;12.20;42.20
20891;DHT22;10605;52.968;8.844;2023-04-03T13:08:55;12.40;43.20
20891;DHT22;10605;52.968;8.844;2023-04-03T13:11:26;11.80;45.80
20891;DHT22;10605;52.968;8.844;2023-04-03T13:14:00;11.10;46.10
20891;DHT22;10605;52.968;8.844;2023-04-03T13:16:28;10.50;50.30
20891;DHT22;10605;52.968;8.844;2023-04-03T13:18:56;10.40;51.20
20891;DHT22;10605;52.968;8.844;2023-04-03T13:21:27;10.50;51.80
20891;DHT22;10605;52.968;8.844;2023-04-03T13:24:00;10.10;53.00
20891;DHT22;10605;52.968;8.844;2023-04-03T13:26:29;9.90;52.60
20891;DHT22;10605;52.968;8.844;2023-04-03T13:29:07;9.40;53.00
20891;DHT22;10605;52.968;8.844;2023-04-03T13:31:43;9.80;52.30
20891;DHT22;10605;52.968;8.844;2023-04-03T13:34:19;10.20;55.80
20891;DHT22;10605;52.968;8.844;2023-04-03T13:36:50;9.90;53.70
20891;DHT22;10605;52.968;8.844;2023-04-03T13:39:27;10.40;54.60
20891;DHT22;10605;52.968;8.844;2023-04-03T13:41:56;10.60;53.40
20891;DHT22;10605;52.968;8.844;2023-04-03T13:46:52;10.90;54.60
20891;DHT22;10605;52.968;8.844;2023-04-03T13:49:30;10.60;52.40
20891;DHT22;10605;52.968;8.844;2023-04-03T13:51:57;10.80;51.00
20891;DHT22;10605;52.968;8.844;2023-04-03T13:54:32;11.00;52.20
20891;DHT22;10605;52.968;8.844;2023-04-03T13:56:59;11.60;50.60
20891;DHT22;10605;52.968;8.844;2023-04-03T13:59:30;11.50;48.10
20891;DHT22;10605;52.968;8.844;2023-04-03T14:04:32;10.20;55.00
20891;DHT22;10605;52.968;8.844;2023-04-03T14:06:58;9.60;54.80
20891;DHT22;10605;52.968;8.844;2023-04-03T14:09:27;9.30;55.10
20891;DHT22;10605;52.968;8.844;2023-04-03T14:12:00;9.30;56.50
20891;DHT22;10605;52.968;8.844;2023-04-03T14:14:33;9.40;57.50
20891;DHT22;10605;52.968;8.844;2023-04-03T14:17:02;9.50;57.10
20891;DHT22;10605;52.968;8.844;2023-04-03T14:19:33;9.90;57.60
20891;DHT22;10605;52.968;8.844;2023-04-03T14:22:00;9.70;54.20
20891;DHT22;10605;52.968;8.844;2023-04-03T14:24:26;9.90;55.40
20891;DHT22;10605;52.968;8.844;2023-04-03T14:26:54;10.60;53.00
20891;DHT22;10605;52.968;8.844;2023-04-03T14:29:21;11.00;51.80
20891;DHT22;10605;52.968;8.844;2023-04-03T14:31:48;10.90;52.20
20891;DHT22;10605;52.968;8.844;2023-04-03T14:34:15;10.60;50.60
20891;DHT22;10605;52.968;8.844;2023-04-03T14:36:42;10.20;51.20
20891;DHT22;10605;52.968;8.844;2023-04-03T14:39:16;10.00;51.90
20891;DHT22;10605;52.968;8.844;2023-04-03T14:41:43;9.30;53.80
20891;DHT22;10605;52.968;8.844;2023-04-03T14:44:09;8.90;54.00
20891;DHT22;10605;52.968;8.844;2023-04-03T14:46:38;8.80;55.70
20891;DHT22;10605;52.968;8.844;2023-04-03T14:49:18;9.00;59.30
20891;DHT22;10605;52.968;8.844;2023-04-03T14:51:44;9.30;57.80
20891;DHT22;10605;52.968;8.844;2023-04-03T14:54:19;9.40;57.00
20891;DHT22;10605;52.968;8.844;2023-04-03T14:56:51;9.40;56.90
20891;DHT22;10605;52.968;8.844;2023-04-03T14:59:28;9.30;57.30
20891;DHT22;10605;52.968;8.844;2023-04-03T15:01:55;9.30;54.10
20891;DHT22;10605;52.968;8.844;2023-04-03T15:04:21;9.40;56.40
20891;DHT22;10605;52.968;8.844;2023-04-03T15:06:48;9.20;56.10
20891;DHT22;10605;52.968;8.844;2023-04-03T15:09:25;9.20;57.60
20891;DHT22;10605;52.968;8.844;2023-04-03T15:12:03;9.50;57.50
20891;DHT22;10605;52.968;8.844;2023-04-03T15:14:32;10.00;58.20
20891;DHT22;10605;52.968;8.844;2023-04-03T15:16:57;9.70;54.80
20891;DHT22;10605;52.968;8.844;2023-04-03T15:19:23;9.70;55.80
20891;DHT22;10605;52.968;8.844;2023-04-03T15:21:49;9.60;54.40
20891;DHT22;10605;52.968;8.844;2023-04-03T15:24:15;9.40;56.30
20891;DHT22;10605;52.968;8.844;2023-04-03T15:26:40;9.50;58.80
20891;DHT22;10605;52.968;8.844;2023-04-03T15:29:07;9.30;56.10
20891;DHT22;10605;52.968;8.844;2023-04-03T15:31:32;9.20;56.40
20891;DHT22;10605;52.968;8.844;2023-04-03T15:33:58;9.30;54.30
20891;DHT22;10605;52.968;8.844;2023-04-03T15:36:24;9.50;57.80
20891;DHT22;10605;52.968;8.844;2023-04-03T15:38:50;9.50;52.90
20891;DHT22;10605;52.968;8.844;2023-04-03T15:41:16;9.80;54.20
20891;DHT22;10605;52.968;8.844;2023-04-03T15:43:42;9.80;54.40
20891;DHT22;10605;52.968;8.844;2023-04-03T15:46:07;9.80;54.60
20891;DHT22;10605;52.968;8.844;2023-04-03T15:48:33;9.70;53.70
20891;DHT22;10605;52.968;8.844;2023-04-03T15:50:59;9.10;52.70
20891;DHT22;10605;52.968;8.844;2023-04-03T15:53:25;8.70;58.00
20891;DHT22;10605;52.968;8.844;2023-04-03T15:55:51;8.40;61.60
20891;DHT22;10605;52.968;8.844;2023-04-03T15:58:17;8.40;60.50
20891;DHT22;10605;52.968;8.844;2023-04-03T16:00:43;8.20;58.90
20891;DHT22;10605;52.968;8.844;2023-04-03T16:03:12;8.20;58.60
20891;DHT22;10605;52.968;8.844;2023-04-03T16:05:38;8.40;58.80
20891;DHT22;10605;52.968;8.844;2023-04-03T16:08:05;8.80;57.60
20891;DHT22;10605;52.968;8.844;2023-04-03T16:10:33;9.00;58.30
20891;DHT22;10605;52.968;8.844;2023-04-03T16:12:59;9.00;56.30
20891;DHT22;10605;52.968;8.844;2023-04-03T16:15:25;9.20;55.20
20891;DHT22;10605;52.968;8.844;2023-04-03T16:17:52;9.10;56.20
20891;DHT22;10605;52.968;8.844;2023-04-03T16:20:18;8.90;60.40
20891;DHT22;10605;52.968;8.844;2023-04-03T16:22:44;8.70;59.90
20891;DHT22;10605;52.968;8.844;2023-04-03T16:25:11;8.50;59.10
20891;DHT22;10605;52.968;8.844;2023-04-03T16:27:40;8.40;60.10
20891;DHT22;10605;52.968;8.844;2023-04-03T16:30:07;8.10;61.80
20891;DHT22;10605;52.968;8.844;2023-04-03T16:32:33;8.10;64.00
20891;DHT22;10605;52.968;8.844;2023-04-03T16:34:59;8.10;62.70
20891;DHT22;10605;52.968;8.844;2023-04-03T16:37:25;8.00;60.40
20891;DHT22;10605;52.968;8.844;2023-04-03T16:39:51;7.90;62.20
20891;DHT22;10605;52.968;8.844;2023-04-03T16:42:17;7.80;63.70
20891;DHT22;10605;52.968;8.844;2023-04-03T16:44:43;7.80;66.40
20891;DHT22;10605;52.968;8.844;2023-04-03T16:47:09;7.60;68.10
20891;DHT22;10605;52.968;8.844;2023-04-03T16:49:35;7.60;66.00
20891;DHT22;10605;52.968;8.844;2023-04-03T16:52:02;7.60;65.50
20891;DHT22;10605;52.968;8.844;2023-04-03T16:54:29;7.60;69.10
20891;DHT22;10605;52.968;8.844;2023-04-03T16:56:55;7.60;69.80
20891;DHT22;10605;52.968;8.844;2023-04-03T16:59:20;7.50;68.00
20891;DHT22;10605;52.968;8.844;2023-04-03T17:01:46;7.50;70.10
20891;DHT22;10605;52.968;8.844;2023-04-03T17:04:12;7.40;70.10
20891;DHT22;10605;52.968;8.844;2023-04-03T17:06:38;7.40;70.80
20891;DHT22;10605;52.968;8.844;2023-04-03T17:09:05;7.40;70.10
20891;DHT22;10605;52.968;8.844;2023-04-03T17:11:32;7.30;71.30
20891;DHT22;10605;52.968;8.844;2023-04-03T17:13:58;7.20;69.00
20891;DHT22;10605;52.968;8.844;2023-04-03T17:16:24;7.30;71.10
20891;DHT22;10605;52.968;8.844;2023-04-03T17:18:51;7.20;74.40
20891;DHT22;10605;52.968;8.844;2023-04-03T17:21:18;6.90;74.20
20891;DHT22;10605;52.968;8.844;2023-04-03T17:23:47;7.00;73.10
20891;DHT22;10605;52.968;8.844;2023-04-03T17:26:14;6.80;73.50
20891;DHT22;10605;52.968;8.844;2023-04-03T17:28:40;6.80;74.60